sensor_id;sensor_type;location;lat;lon;timestamp;temperature;humidity
24148;DHT22;12309;51.450;-2.624;2022-08-04T00:00:10;17.20;99.90
24148;DHT22;12309;51.450;-2.624;2022-08-04T00:08:45;17.10;99.90
24148;DHT22;12309;51.450;-2.624;2022-08-04T00:11:21;17.10;99.90
24148;DHT22;12309;51.450;-2.624;2022-08-04T00:13:57;17.10;99.90
24148;DHT22;12309;51.450;-2.624;2022-08-04T00:16:34;17.00;99.90
24148;DHT22;12309;51.450;-2.624;2022-08-04T00:19:03;17.00;99.90
24148;DHT22;12309;51.450;-2.624;2022-08-04T00:21:35;17.00;99.90
24148;DHT22;12309;51.450;-2.624;2022-08-04T00:24:02;16.90;99.90
24148;DHT22;12309;51.450;-2.624;2022-08-04T00:26:28;16.90;99.90
24148;DHT22;12309;51.450;-2.624;2022-08-04T00:28:54;16.90;99.90
24148;DHT22;12309;51.450;-2.624;2022-08-04T00:31:21;16.90;99.90
24148;DHT22;12309;51.450;-2.624;2022-08-04T00:33:47;16.90;99.90
24148;DHT22;12309;51.450;-2.624;2022-08-04T00:36:14;16.80;99.90
24148;DHT22;12309;51.450;-2.624;2022-08-04T00:38:42;16.80;99.90
24148;DHT22;12309;51.450;-2.624;2022-08-04T00:41:29;16.80;99.90
24148;DHT22;12309;51.450;-2.624;2022-08-04T00:47:03;16.70;99.90
24148;DHT22;12309;51.450;-2.624;2022-08-04T00:52:23;16.70;99.90
24148;DHT22;12309;51.450;-2.624;2022-08-04T01:00:41;16.70;99.90
24148;DHT22;12309;51.450;-2.624;2022-08-04T01:03:16;16.60;99.90
24148;DHT22;12309;51.450;-2.624;2022-08-04T01:16:54;16.50;99.90
24148;DHT22;12309;51.450;-2.624;2022-08-04T01:19:38;16.50;99.90
24148;DHT22;12309;51.450;-2.624;2022-08-04T01:25:32;16.50;99.90
24148;DHT22;12309;51.450;-2.624;2022-08-04T01:28:28;16.50;99.90
24148;DHT22;12309;51.450;-2.624;2022-08-04T01:31:09;16.40;99.90
24148;DHT22;12309;51.450;-2.624;2022-08-04T01:33:37;16.40;99.90
24148;DHT22;12309;51.450;-2.624;2022-08-04T01:36:04;16.40;99.90
24148;DHT22;12309;51.450;-2.624;2022-08-04T01:38:35;16.30;99.90
24148;DHT22;12309;51.450;-2.624;2022-08-04T01:41:09;15.60;99.90
24148;DHT22;12309;51.450;-2.624;2022-08-04T01:43:43;16.30;99.90
24148;DHT22;12309;51.450;-2.624;2022-08-04T01:46:16;16.30;99.90
24148;DHT22;12309;51.450;-2.624;2022-08-04T01:48:46;16.30;99.90
24148;DHT22;12309;51.450;-2.624;2022-08-04T01:51:12;16.20;99.90
24148;DHT22;12309;51.450;-2.624;2022-08-04T01:53:40;16.20;99.90
24148;DHT22;12309;51.450;-2.624;2022-08-04T01:56:10;16.20;99.90
24148;DHT22;12309;51.450;-2.624;2022-08-04T01:58:37;16.10;99.90
24148;DHT22;12309;51.450;-2.624;2022-08-04T02:01:07;16.10;99.90
24148;DHT22;12309;51.450;-2.624;2022-08-04T02:03:34;16.00;99.90
24148;DHT22;12309;51.450;-2.624;2022-08-04T02:11:23;16.00;99.90
24148;DHT22;12309;51.450;-2.624;2022-08-04T02:21:29;16.00;99.90
24148;DHT22;12309;51.450;-2.624;2022-08-04T02:24:15;16.00;99.90
24148;DHT22;12309;51.450;-2.624;2022-08-04T02:26:47;16.00;99.90
24148;DHT22;12309;51.450;-2.624;2022-08-04T02:29:51;16.00;99.90
24148;DHT22;12309;51.450;-2.624;2022-08-04T02:32:26;16.00;99.90
24148;DHT22;12309;51.450;-2.624;2022-08-04T02:34:55;16.00;99.90
24148;DHT22;12309;51.450;-2.624;2022-08-04T02:37:23;15.90;99.90
24148;DHT22;12309;51.450;-2.624;2022-08-04T02:39:52;15.90;99.90
24148;DHT22;12309;51.450;-2.624;2022-08-04T02:42:19;15.90;99.90
24148;DHT22;12309;51.450;-2.624;2022-08-04T02:44:49;15.80;99.90
24148;DHT22;12309;51.450;-2.624;2022-08-04T02:47:20;15.80;99.90
24148;DHT22;12309;51.450;-2.624;2022-08-04T02:49:46;15.80;99.90
24148;DHT22;12309;51.450;-2.624;2022-08-04T02:52:15;15.80;99.90
24148;DHT22;12309;51.450;-2.624;2022-08-04T02:54:44;15.80;99.90
24148;DHT22;12309;51.450;-2.624;2022-08-04T02:57:12;15.70;99.90
24148;DHT22;12309;51.450;-2.624;2022-08-04T03:00:07;15.70;99.90
24148;DHT22;12309;51.450;-2.624;2022-08-04T03:08:40;15.70;99.90
24148;DHT22;12309;51.450;-2.624;2022-08-04T03:35:35;15.70;99.90
24148;DHT22;12309;51.450;-2.624;2022-08-04T03:44:09;15.70;99.90
24148;DHT22;12309;51.450;-2.624;2022-08-04T03:55:34;15.70;99.90
24148;DHT22;12309;51.450;-2.624;2022-08-04T04:01:11;15.60;99.90
24148;DHT22;12309;51.450;-2.624;2022-08-04T04:18:15;15.50;99.90
24148;DHT22;12309;51.450;-2.624;2022-08-04T04:20:55;15.50;99.90
24148;DHT22;12309;51.450;-2.624;2022-08-04T04:28:57;15.50;99.90
24148;DHT22;12309;51.450;-2.624;2022-08-04T04:31:55;15.60;99.90
24148;DHT22;12309;51.450;-2.624;2022-08-04T04:54:52;15.40;99.90
24148;DHT22;12309;51.450;-2.624;2022-08-04T04:57:20;15.40;99.90
24148;DHT22;12309;51.450;-2.624;2022-08-04T04:59:54;15.40;99.90
24148;DHT22;12309;51.450;-2.624;2022-08-04T05:16:26;15.40;99.90
24148;DHT22;12309;51.450;-2.624;2022-08-04T05:21:46;15.40;99.90
24148;DHT22;12309;51.450;-2.624;2022-08-04T05:24:15;15.40;99.90
24148;DHT22;12309;51.450;-2.624;2022-08-04T05:26:50;15.40;99.90
24148;DHT22;12309;51.450;-2.624;2022-08-04T05:29:53;15.50;99.90
24148;DHT22;12309;51.450;-2.624;2022-08-04T05:32:28;15.50;99.90
24148;DHT22;12309;51.450;-2.624;2022-08-04T05:34:59;15.60;99.90
24148;DHT22;12309;51.450;-2.624;2022-08-04T05:37:27;16.30;99.90
24148;DHT22;12309;51.450;-2.624;2022-08-04T05:40:03;15.60;99.90
24148;DHT22;12309;51.450;-2.624;2022-08-04T05:42:32;15.60;99.90
24148;DHT22;12309;51.450;-2.624;2022-08-04T05:45:01;15.70;99.90
24148;DHT22;12309;51.450;-2.624;2022-08-04T05:47:28;15.80;99.90
24148;DHT22;12309;51.450;-2.624;2022-08-04T05:49:56;15.90;99.90
24148;DHT22;12309;51.450;-2.624;2022-08-04T05:52:23;15.90;99.90
24148;DHT22;12309;51.450;-2.624;2022-08-04T05:54:50;16.00;99.90
24148;DHT22;12309;51.450;-2.624;2022-08-04T05:57:17;16.10;99.90
24148;DHT22;12309;51.450;-2.624;2022-08-04T05:59:43;16.20;99.90
24148;DHT22;12309;51.450;-2.624;2022-08-04T06:02:13;16.20;99.90
24148;DHT22;12309;51.450;-2.624;2022-08-04T06:04:41;16.30;99.90
24148;DHT22;12309;51.450;-2.624;2022-08-04T06:07:08;16.30;99.90
24148;DHT22;12309;51.450;-2.624;2022-08-04T06:09:36;16.40;99.90
24148;DHT22;12309;51.450;-2.624;2022-08-04T06:12:09;16.40;99.90
24148;DHT22;12309;51.450;-2.624;2022-08-04T06:14:47;16.50;99.90
24148;DHT22;12309;51.450;-2.624;2022-08-04T06:17:37;16.70;99.90
24148;DHT22;12309;51.450;-2.624;2022-08-04T06:20:04;16.80;99.90
24148;DHT22;12309;51.450;-2.624;2022-08-04T06:22:33;16.80;99.90
24148;DHT22;12309;51.450;-2.624;2022-08-04T06:25:00;16.90;99.90
24148;DHT22;12309;51.450;-2.624;2022-08-04T06:27:28;17.00;99.90
24148;DHT22;12309;51.450;-2.624;2022-08-04T06:29:56;17.10;99.90
24148;DHT22;12309;51.450;-2.624;2022-08-04T06:32:23;17.10;99.90
24148;DHT22;12309;51.450;-2.624;2022-08-04T06:35:03;17.20;99.90
24148;DHT22;12309;51.450;-2.624;2022-08-04T06:37:30;17.20;99.90
24148;DHT22;12309;51.450;-2.624;2022-08-04T06:39:56;17.40;99.90
24148;DHT22;12309;51.450;-2.624;2022-08-04T06:42:25;17.40;99.90
24148;DHT22;12309;51.450;-2.624;2022-08-04T06:44:54;17.40;99.90
24148;DHT22;12309;51.450;-2.624;2022-08-04T06:47:22;17.60;99.90
24148;DHT22;12309;51.450;-2.624;2022-08-04T06:49:52;17.70;99.90
24148;DHT22;12309;51.450;-2.624;2022-08-04T06:52:20;17.70;99.90
24148;DHT22;12309;51.450;-2.624;2022-08-04T06:54:47;17.70;99.90
24148;DHT22;12309;51.450;-2.624;2022-08-04T06:57:15;17.90;99.90
24148;DHT22;12309;51.450;-2.624;2022-08-04T06:59:48;17.80;99.90
24148;DHT22;12309;51.450;-2.624;2022-08-04T07:02:19;17.90;99.90
24148;DHT22;12309;51.450;-2.624;2022-08-04T07:04:47;18.00;99.90
24148;DHT22;12309;51.450;-2.624;2022-08-04T07:07:13;18.00;99.90
24148;DHT22;12309;51.450;-2.624;2022-08-04T07:09:40;18.10;99.90
24148;DHT22;12309;51.450;-2.624;2022-08-04T07:12:06;18.20;99.90
24148;DHT22;12309;51.450;-2.624;2022-08-04T07:14:33;18.30;99.90
24148;DHT22;12309;51.450;-2.624;2022-08-04T07:17:05;18.30;99.90
24148;DHT22;12309;51.450;-2.624;2022-08-04T07:19:33;18.40;99.90
24148;DHT22;12309;51.450;-2.624;2022-08-04T07:22:00;18.40;99.90
24148;DHT22;12309;51.450;-2.624;2022-08-04T07:24:33;18.50;99.90
24148;DHT22;12309;51.450;-2.624;2022-08-04T07:27:00;18.50;99.90
24148;DHT22;12309;51.450;-2.624;2022-08-04T07:29:26;18.50;99.90
24148;DHT22;12309;51.450;-2.624;2022-08-04T07:31:55;18.60;99.90
24148;DHT22;12309;51.450;-2.624;2022-08-04T07:34:22;18.70;99.90
24148;DHT22;12309;51.450;-2.624;2022-08-04T07:36:50;18.70;99.90
24148;DHT22;12309;51.450;-2.624;2022-08-04T07:39:16;18.60;99.90
24148;DHT22;12309;51.450;-2.624;2022-08-04T07:41:42;18.60;99.90
24148;DHT22;12309;51.450;-2.624;2022-08-04T07:44:09;18.30;99.90
24148;DHT22;12309;51.450;-2.624;2022-08-04T07:46:35;18.30;99.90
24148;DHT22;12309;51.450;-2.624;2022-08-04T07:49:02;18.40;99.90
24148;DHT22;12309;51.450;-2.624;2022-08-04T07:51:29;18.40;99.90
24148;DHT22;12309;51.450;-2.624;2022-08-04T07:53:56;18.40;99.90
24148;DHT22;12309;51.450;-2.624;2022-08-04T07:56:24;18.40;99.90
24148;DHT22;12309;51.450;-2.624;2022-08-04T07:58:50;18.40;99.90
24148;DHT22;12309;51.450;-2.624;2022-08-04T08:01:15;18.40;99.90
24148;DHT22;12309;51.450;-2.624;2022-08-04T08:03:42;18.30;99.90
24148;DHT22;12309;51.450;-2.624;2022-08-04T08:06:08;18.30;99.90
24148;DHT22;12309;51.450;-2.624;2022-08-04T08:08:37;18.30;99.90
24148;DHT22;12309;51.450;-2.624;2022-08-04T08:11:04;18.40;99.90
24148;DHT22;12309;51.450;-2.624;2022-08-04T08:13:30;18.50;99.90
24148;DHT22;12309;51.450;-2.624;2022-08-04T08:15:56;18.50;99.90
24148;DHT22;12309;51.450;-2.624;2022-08-04T08:18:23;18.50;99.90
24148;DHT22;12309;51.450;-2.624;2022-08-04T08:20:49;18.70;99.90
24148;DHT22;12309;51.450;-2.624;2022-08-04T08:23:17;18.70;99.90
24148;DHT22;12309;51.450;-2.624;2022-08-04T08:25:43;18.60;99.90
24148;DHT22;12309;51.450;-2.624;2022-08-04T08:28:09;18.60;99.90
24148;DHT22;12309;51.450;-2.624;2022-08-04T08:30:35;18.80;99.90
24148;DHT22;12309;51.450;-2.624;2022-08-04T08:33:04;19.20;99.90
24148;DHT22;12309;51.450;-2.624;2022-08-04T08:38:13;21.20;99.90
24148;DHT22;12309;51.450;-2.624;2022-08-04T08:40:57;21.90;99.90
24148;DHT22;12309;51.450;-2.624;2022-08-04T08:57:33;23.70;99.90
24148;DHT22;12309;51.450;-2.624;2022-08-04T09:00:19;22.80;99.90
24148;DHT22;12309;51.450;-2.624;2022-08-04T09:11:21;23.10;99.90
24148;DHT22;12309;51.450;-2.624;2022-08-04T09:22:16;23.10;99.90
24148;DHT22;12309;51.450;-2.624;2022-08-04T09:25:25;23.00;99.90
24148;DHT22;12309;51.450;-2.624;2022-08-04T09:27:54;22.90;99.90
24148;DHT22;12309;51.450;-2.624;2022-08-04T09:30:44;23.00;99.90
24148;DHT22;12309;51.450;-2.624;2022-08-04T09:33:17;23.40;99.90
24148;DHT22;12309;51.450;-2.624;2022-08-04T09:35:57;23.00;99.90
24148;DHT22;12309;51.450;-2.624;2022-08-04T09:38:40;23.20;99.90
24148;DHT22;12309;51.450;-2.624;2022-08-04T09:49:22;23.90;99.90
24148;DHT22;12309;51.450;-2.624;2022-08-04T09:54:39;24.00;99.90
24148;DHT22;12309;51.450;-2.624;2022-08-04T10:00:22;23.50;99.90
24148;DHT22;12309;51.450;-2.624;2022-08-04T10:02:54;23.50;99.90
24148;DHT22;12309;51.450;-2.624;2022-08-04T10:05:26;23.50;99.90
24148;DHT22;12309;51.450;-2.624;2022-08-04T10:13:26;23.10;99.90
24148;DHT22;12309;51.450;-2.624;2022-08-04T10:15:59;23.20;99.90
24148;DHT22;12309;51.450;-2.624;2022-08-04T10:24:30;24.30;99.90
24148;DHT22;12309;51.450;-2.624;2022-08-04T10:27:08;24.60;99.90
24148;DHT22;12309;51.450;-2.624;2022-08-04T10:29:45;24.40;99.90
24148;DHT22;12309;51.450;-2.624;2022-08-04T10:32:24;24.40;99.90
24148;DHT22;12309;51.450;-2.624;2022-08-04T10:38:10;24.80;99.90
24148;DHT22;12309;51.450;-2.624;2022-08-04T10:40:46;24.80;99.90
24148;DHT22;12309;51.450;-2.624;2022-08-04T10:46:07;25.30;99.90
24148;DHT22;12309;51.450;-2.624;2022-08-04T10:51:48;25.90;99.90
24148;DHT22;12309;51.450;-2.624;2022-08-04T10:56:49;26.80;99.90
24148;DHT22;12309;51.450;-2.624;2022-08-04T10:59:29;26.70;99.90
24148;DHT22;12309;51.450;-2.624;2022-08-04T11:02:04;26.80;99.90
24148;DHT22;12309;51.450;-2.624;2022-08-04T11:04:45;26.80;99.90
24148;DHT22;12309;51.450;-2.624;2022-08-04T11:07:11;26.30;99.90
24148;DHT22;12309;51.450;-2.624;2022-08-04T11:09:39;26.40;99.90
24148;DHT22;12309;51.450;-2.624;2022-08-04T11:12:15;25.90;99.90
24148;DHT22;12309;51.450;-2.624;2022-08-04T11:14:55;25.10;99.90
24148;DHT22;12309;51.450;-2.624;2022-08-04T11:17:26;25.00;99.90
24148;DHT22;12309;51.450;-2.624;2022-08-04T11:22:28;25.40;99.90
24148;DHT22;12309;51.450;-2.624;2022-08-04T11:25:00;26.10;99.90
24148;DHT22;12309;51.450;-2.624;2022-08-04T11:30:16;26.40;99.90
24148;DHT22;12309;51.450;-2.624;2022-08-04T11:33:01;27.10;99.90
24148;DHT22;12309;51.450;-2.624;2022-08-04T11:41:24;26.70;99.90
24148;DHT22;12309;51.450;-2.624;2022-08-04T11:43:54;25.80;99.90
24148;DHT22;12309;51.450;-2.624;2022-08-04T11:46:35;25.60;99.90
24148;DHT22;12309;51.450;-2.624;2022-08-04T11:49:07;25.90;99.90
24148;DHT22;12309;51.450;-2.624;2022-08-04T11:51:37;25.80;99.90
24148;DHT22;12309;51.450;-2.624;2022-08-04T11:54:03;25.70;99.90
24148;DHT22;12309;51.450;-2.624;2022-08-04T11:56:30;26.00;99.90
24148;DHT22;12309;51.450;-2.624;2022-08-04T11:58:57;27.10;99.90
24148;DHT22;12309;51.450;-2.624;2022-08-04T12:03:59;26.80;99.90
24148;DHT22;12309;51.450;-2.624;2022-08-04T12:06:31;27.60;99.90
24148;DHT22;12309;51.450;-2.624;2022-08-04T12:14:46;28.70;99.90
24148;DHT22;12309;51.450;-2.624;2022-08-04T12:17:23;29.40;99.90
24148;DHT22;12309;51.450;-2.624;2022-08-04T12:19:52;29.60;99.90
24148;DHT22;12309;51.450;-2.624;2022-08-04T12:22:25;28.90;99.90
24148;DHT22;12309;51.450;-2.624;2022-08-04T12:25:00;28.90;99.90
24148;DHT22;12309;51.450;-2.624;2022-08-04T12:27:32;28.60;99.90
24148;DHT22;12309;51.450;-2.624;2022-08-04T12:29:58;28.60;99.90
24148;DHT22;12309;51.450;-2.624;2022-08-04T12:33:01;29.00;99.90
24148;DHT22;12309;51.450;-2.624;2022-08-04T12:38:32;27.10;99.90
24148;DHT22;12309;51.450;-2.624;2022-08-04T12:41:00;26.30;99.90
24148;DHT22;12309;51.450;-2.624;2022-08-04T12:43:38;26.70;99.90
24148;DHT22;12309;51.450;-2.624;2022-08-04T12:46:19;27.60;99.90
24148;DHT22;12309;51.450;-2.624;2022-08-04T12:48:47;28.00;99.90
24148;DHT22;12309;51.450;-2.624;2022-08-04T12:51:14;27.20;99.90
24148;DHT22;12309;51.450;-2.624;2022-08-04T12:53:42;27.20;99.90
24148;DHT22;12309;51.450;-2.624;2022-08-04T12:56:11;26.80;99.90
24148;DHT22;12309;51.450;-2.624;2022-08-04T12:58:40;26.70;99.90
24148;DHT22;12309;51.450;-2.624;2022-08-04T13:01:10;26.60;99.90
24148;DHT22;12309;51.450;-2.624;2022-08-04T13:04:29;26.20;99.90
24148;DHT22;12309;51.450;-2.624;2022-08-04T13:06:36;25.30;99.90
24148;DHT22;12309;51.450;-2.624;2022-08-04T13:09:09;25.50;99.90
24148;DHT22;12309;51.450;-2.624;2022-08-04T13:11:39;26.10;99.90
24148;DHT22;12309;51.450;-2.624;2022-08-04T13:14:06;26.90;99.90
24148;DHT22;12309;51.450;-2.624;2022-08-04T13:16:34;27.80;99.90
24148;DHT22;12309;51.450;-2.624;2022-08-04T13:19:00;26.30;99.90
24148;DHT22;12309;51.450;-2.624;2022-08-04T13:21:29;26.80;99.90
24148;DHT22;12309;51.450;-2.624;2022-08-04T13:24:00;26.50;99.90
24148;DHT22;12309;51.450;-2.624;2022-08-04T13:26:27;26.70;99.90
24148;DHT22;12309;51.450;-2.624;2022-08-04T13:28:53;26.40;99.90
24148;DHT22;12309;51.450;-2.624;2022-08-04T13:31:26;26.00;99.90
24148;DHT22;12309;51.450;-2.624;2022-08-04T13:33:54;26.10;99.90
24148;DHT22;12309;51.450;-2.624;2022-08-04T13:36:27;26.20;99.90
24148;DHT22;12309;51.450;-2.624;2022-08-04T13:38:57;26.00;99.90
24148;DHT22;12309;51.450;-2.624;2022-08-04T13:41:25;25.70;99.90
24148;DHT22;12309;51.450;-2.624;2022-08-04T13:43:57;25.40;99.90
24148;DHT22;12309;51.450;-2.624;2022-08-04T13:46:27;25.80;99.90
24148;DHT22;12309;51.450;-2.624;2022-08-04T13:48:55;26.10;99.90
24148;DHT22;12309;51.450;-2.624;2022-08-04T13:51:22;26.10;99.90
24148;DHT22;12309;51.450;-2.624;2022-08-04T13:53:57;26.00;99.90
24148;DHT22;12309;51.450;-2.624;2022-08-04T13:56:32;25.80;99.90
24148;DHT22;12309;51.450;-2.624;2022-08-04T13:59:02;26.10;99.90
24148;DHT22;12309;51.450;-2.624;2022-08-04T14:01:28;26.30;99.90
24148;DHT22;12309;51.450;-2.624;2022-08-04T14:04:19;26.30;99.90
24148;DHT22;12309;51.450;-2.624;2022-08-04T14:06:51;25.90;99.90
24148;DHT22;12309;51.450;-2.624;2022-08-04T14:09:21;26.50;99.90
24148;DHT22;12309;51.450;-2.624;2022-08-04T14:11:50;26.20;99.90
24148;DHT22;12309;51.450;-2.624;2022-08-04T14:17:09;26.10;99.90
24148;DHT22;12309;51.450;-2.624;2022-08-04T14:27:55;28.60;99.90
24148;DHT22;12309;51.450;-2.624;2022-08-04T14:30:28;27.60;99.90
24148;DHT22;12309;51.450;-2.624;2022-08-04T14:32:56;27.10;99.90
24148;DHT22;12309;51.450;-2.624;2022-08-04T14:35:22;27.80;99.90
24148;DHT22;12309;51.450;-2.624;2022-08-04T14:37:53;27.50;99.90
24148;DHT22;12309;51.450;-2.624;2022-08-04T14:40:31;26.60;99.90
24148;DHT22;12309;51.450;-2.624;2022-08-04T14:42:57;26.30;99.90
24148;DHT22;12309;51.450;-2.624;2022-08-04T14:45:42;25.80;99.90
24148;DHT22;12309;51.450;-2.624;2022-08-04T14:48:13;25.90;99.90
24148;DHT22;12309;51.450;-2.624;2022-08-04T14:50:43;25.80;99.90
24148;DHT22;12309;51.450;-2.624;2022-08-04T14:53:12;26.10;99.90
24148;DHT22;12309;51.450;-2.624;2022-08-04T14:55:41;26.40;99.90
24148;DHT22;12309;51.450;-2.624;2022-08-04T14:58:29;26.50;99.90
24148;DHT22;12309;51.450;-2.624;2022-08-04T15:00:57;26.90;99.90
24148;DHT22;12309;51.450;-2.624;2022-08-04T15:03:24;28.20;99.90
24148;DHT22;12309;51.450;-2.624;2022-08-04T15:05:50;29.10;99.90
24148;DHT22;12309;51.450;-2.624;2022-08-04T15:08:17;28.90;99.90
24148;DHT22;12309;51.450;-2.624;2022-08-04T15:10:43;28.90;99.90
24148;DHT22;12309;51.450;-2.624;2022-08-04T15:13:10;28.70;99.90
24148;DHT22;12309;51.450;-2.624;2022-08-04T15:15:39;29.50;99.90
24148;DHT22;12309;51.450;-2.624;2022-08-04T15:18:09;30.10;99.90
24148;DHT22;12309;51.450;-2.624;2022-08-04T15:20:37;30.50;99.90
24148;DHT22;12309;51.450;-2.624;2022-08-04T15:23:03;29.90;99.90
24148;DHT22;12309;51.450;-2.624;2022-08-04T15:25:38;29.70;99.90
24148;DHT22;12309;51.450;-2.624;2022-08-04T15:28:07;30.00;99.90
24148;DHT22;12309;51.450;-2.624;2022-08-04T15:30:37;30.00;99.90
24148;DHT22;12309;51.450;-2.624;2022-08-04T15:33:04;30.10;99.90
24148;DHT22;12309;51.450;-2.624;2022-08-04T15:35:30;29.70;99.90
24148;DHT22;12309;51.450;-2.624;2022-08-04T15:41:04;29.30;99.90
24148;DHT22;12309;51.450;-2.624;2022-08-04T15:43:44;29.20;99.90
24148;DHT22;12309;51.450;-2.624;2022-08-04T15:46:11;28.60;99.90
24148;DHT22;12309;51.450;-2.624;2022-08-04T15:48:37;28.90;99.90
24148;DHT22;12309;51.450;-2.624;2022-08-04T15:51:09;29.20;99.90
24148;DHT22;12309;51.450;-2.624;2022-08-04T15:58:53;29.50;99.90
24148;DHT22;12309;51.450;-2.624;2022-08-04T16:01:20;29.60;99.90
24148;DHT22;12309;51.450;-2.624;2022-08-04T16:03:49;29.70;99.90
24148;DHT22;12309;51.450;-2.624;2022-08-04T16:16:29;28.60;99.90
24148;DHT22;12309;51.450;-2.624;2022-08-04T16:21:53;28.50;99.90
24148;DHT22;12309;51.450;-2.624;2022-08-04T16:24:36;29.00;99.90
24148;DHT22;12309;51.450;-2.624;2022-08-04T16:27:04;28.60;99.90
24148;DHT22;12309;51.450;-2.624;2022-08-04T16:29:41;28.40;99.90
24148;DHT22;12309;51.450;-2.624;2022-08-04T16:32:20;27.90;99.90
24148;DHT22;12309;51.450;-2.624;2022-08-04T16:34:58;28.10;99.90
24148;DHT22;12309;51.450;-2.624;2022-08-04T16:37:36;28.10;99.90
24148;DHT22;12309;51.450;-2.624;2022-08-04T16:40:28;27.70;99.90
24148;DHT22;12309;51.450;-2.624;2022-08-04T16:43:07;28.20;99.90
24148;DHT22;12309;51.450;-2.624;2022-08-04T16:45:53;28.80;99.90
24148;DHT22;12309;51.450;-2.624;2022-08-04T16:50:52;28.70;99.90
24148;DHT22;12309;51.450;-2.624;2022-08-04T16:53:19;27.70;99.90
24148;DHT22;12309;51.450;-2.624;2022-08-04T16:55:49;27.70;99.90
24148;DHT22;12309;51.450;-2.624;2022-08-04T16:58:30;27.80;99.90
24148;DHT22;12309;51.450;-2.624;2022-08-04T17:00:57;27.20;99.90
24148;DHT22;12309;51.450;-2.624;2022-08-04T17:03:24;26.90;99.90
24148;DHT22;12309;51.450;-2.624;2022-08-04T17:06:04;27.00;99.90
24148;DHT22;12309;51.450;-2.624;2022-08-04T17:08:30;27.20;99.90
24148;DHT22;12309;51.450;-2.624;2022-08-04T17:10:57;27.20;99.90
24148;DHT22;12309;51.450;-2.624;2022-08-04T17:13:29;26.40;99.90
24148;DHT22;12309;51.450;-2.624;2022-08-04T17:16:00;26.30;99.90
24148;DHT22;12309;51.450;-2.624;2022-08-04T17:18:31;26.10;99.90
24148;DHT22;12309;51.450;-2.624;2022-08-04T17:21:01;25.80;99.90
24148;DHT22;12309;51.450;-2.624;2022-08-04T17:23:45;25.40;99.90
24148;DHT22;12309;51.450;-2.624;2022-08-04T17:26:41;25.30;99.90
24148;DHT22;12309;51.450;-2.624;2022-08-04T17:29:06;24.70;99.90
24148;DHT22;12309;51.450;-2.624;2022-08-04T17:31:34;24.10;99.90
24148;DHT22;12309;51.450;-2.624;2022-08-04T17:34:07;23.80;99.90
24148;DHT22;12309;51.450;-2.624;2022-08-04T17:36:33;23.40;99.90
24148;DHT22;12309;51.450;-2.624;2022-08-04T17:39:13;23.40;99.90
24148;DHT22;12309;51.450;-2.624;2022-08-04T17:41:39;23.20;99.90
24148;DHT22;12309;51.450;-2.624;2022-08-04T17:44:05;23.50;99.90
24148;DHT22;12309;51.450;-2.624;2022-08-04T17:46:36;23.10;99.90
24148;DHT22;12309;51.450;-2.624;2022-08-04T17:49:04;23.20;99.90
24148;DHT22;12309;51.450;-2.624;2022-08-04T17:54:04;23.20;99.90
24148;DHT22;12309;51.450;-2.624;2022-08-04T17:56:38;22.90;99.90
24148;DHT22;12309;51.450;-2.624;2022-08-04T17:59:15;22.60;99.90
24148;DHT22;12309;51.450;-2.624;2022-08-04T18:12:27;22.70;99.90
24148;DHT22;12309;51.450;-2.624;2022-08-04T18:14:59;22.60;99.90
24148;DHT22;12309;51.450;-2.624;2022-08-04T18:20:02;22.40;99.90
24148;DHT22;12309;51.450;-2.624;2022-08-04T18:22:29;22.20;99.90
24148;DHT22;12309;51.450;-2.624;2022-08-04T18:24:54;22.10;99.90
24148;DHT22;12309;51.450;-2.624;2022-08-04T18:27:22;22.10;99.90
24148;DHT22;12309;51.450;-2.624;2022-08-04T18:29:49;21.80;99.90
24148;DHT22;12309;51.450;-2.624;2022-08-04T18:32:15;21.80;99.90
24148;DHT22;12309;51.450;-2.624;2022-08-04T18:34:41;21.50;99.90
24148;DHT22;12309;51.450;-2.624;2022-08-04T18:37:07;21.70;99.90
24148;DHT22;12309;51.450;-2.624;2022-08-04T18:39:32;21.70;99.90
24148;DHT22;12309;51.450;-2.624;2022-08-04T18:41:59;21.50;99.90
24148;DHT22;12309;51.450;-2.624;2022-08-04T18:44:25;21.60;99.90
24148;DHT22;12309;51.450;-2.624;2022-08-04T18:46:51;21.50;99.90
24148;DHT22;12309;51.450;-2.624;2022-08-04T18:49:18;21.40;99.90
24148;DHT22;12309;51.450;-2.624;2022-08-04T18:51:47;21.60;99.90
24148;DHT22;12309;51.450;-2.624;2022-08-04T18:54:13;21.50;99.90
24148;DHT22;12309;51.450;-2.624;2022-08-04T18:56:38;21.50;99.90
24148;DHT22;12309;51.450;-2.624;2022-08-04T18:59:05;21.40;99.90
24148;DHT22;12309;51.450;-2.624;2022-08-04T19:01:31;21.10;99.90
24148;DHT22;12309;51.450;-2.624;2022-08-04T19:03:57;21.00;99.90
24148;DHT22;12309;51.450;-2.624;2022-08-04T19:06:24;20.70;99.90
24148;DHT22;12309;51.450;-2.624;2022-08-04T19:08:49;20.70;99.90
24148;DHT22;12309;51.450;-2.624;2022-08-04T19:11:15;20.60;99.90
24148;DHT22;12309;51.450;-2.624;2022-08-04T19:13:41;20.40;99.90
24148;DHT22;12309;51.450;-2.624;2022-08-04T19:16:07;20.40;99.90
24148;DHT22;12309;51.450;-2.624;2022-08-04T19:18:33;20.20;99.90
24148;DHT22;12309;51.450;-2.624;2022-08-04T19:20:59;20.10;99.90
24148;DHT22;12309;51.450;-2.624;2022-08-04T19:23:26;20.10;99.90
24148;DHT22;12309;51.450;-2.624;2022-08-04T19:25:52;20.10;99.90
24148;DHT22;12309;51.450;-2.624;2022-08-04T19:28:18;20.10;99.90
24148;DHT22;12309;51.450;-2.624;2022-08-04T19:30:44;20.00;99.90
24148;DHT22;12309;51.450;-2.624;2022-08-04T19:33:10;20.00;99.90
24148;DHT22;12309;51.450;-2.624;2022-08-04T19:35:36;20.00;99.90
24148;DHT22;12309;51.450;-2.624;2022-08-04T19:38:05;19.90;99.90
24148;DHT22;12309;51.450;-2.624;2022-08-04T19:40:31;19.80;99.90
24148;DHT22;12309;51.450;-2.624;2022-08-04T19:42:57;19.70;99.90
24148;DHT22;12309;51.450;-2.624;2022-08-04T19:45:22;19.60;99.90
24148;DHT22;12309;51.450;-2.624;2022-08-04T19:47:48;19.60;99.90
24148;DHT22;12309;51.450;-2.624;2022-08-04T19:50:14;19.60;99.90
24148;DHT22;12309;51.450;-2.624;2022-08-04T19:52:40;19.40;99.90
24148;DHT22;12309;51.450;-2.624;2022-08-04T19:55:06;19.40;99.90
24148;DHT22;12309;51.450;-2.624;2022-08-04T19:57:32;19.30;99.90
24148;DHT22;12309;51.450;-2.624;2022-08-04T19:59:58;19.20;99.90
24148;DHT22;12309;51.450;-2.624;2022-08-04T20:02:23;19.00;99.90
24148;DHT22;12309;51.450;-2.624;2022-08-04T20:04:49;18.90;99.90
24148;DHT22;12309;51.450;-2.624;2022-08-04T20:07:15;19.00;99.90
24148;DHT22;12309;51.450;-2.624;2022-08-04T20:09:40;18.90;99.90
24148;DHT22;12309;51.450;-2.624;2022-08-04T20:12:06;18.90;99.90
24148;DHT22;12309;51.450;-2.624;2022-08-04T20:14:32;18.80;99.90
24148;DHT22;12309;51.450;-2.624;2022-08-04T20:16:57;18.90;99.90
24148;DHT22;12309;51.450;-2.624;2022-08-04T20:19:23;18.90;99.90
24148;DHT22;12309;51.450;-2.624;2022-08-04T20:21:49;18.90;99.90
24148;DHT22;12309;51.450;-2.624;2022-08-04T20:24:15;18.90;99.90
24148;DHT22;12309;51.450;-2.624;2022-08-04T20:26:41;18.90;99.90
24148;DHT22;12309;51.450;-2.624;2022-08-04T20:29:06;18.90;99.90
24148;DHT22;12309;51.450;-2.624;2022-08-04T20:31:33;18.90;99.90